createdAt,value
2018-08-06T00:01:38.536Z,69.79
2018-08-06T00:04:10.047Z,69.83
2018-08-06T00:06:42.048Z,69.93
2018-08-06T00:09:14.960Z,69.97
2018-08-06T00:11:46.380Z,69.91
2018-08-06T00:14:19.491Z,69.86
2018-08-06T00:16:53.903Z,69.55
2018-08-06T00:19:26.852Z,69.59
2018-08-06T00:21:59.109Z,69.73
2018-08-06T00:24:29.017Z,69.35
2018-08-06T00:27:04.035Z,69.24
2018-08-06T00:29:34.048Z,69.37
2018-08-06T00:32:06.817Z,68.99
2018-08-06T00:34:39.936Z,69.22
2018-08-06T00:37:11.408Z,69.17
2018-08-06T00:39:45.987Z,69.15
2018-08-06T00:42:20.411Z,69.08
2018-08-06T00:44:51.914Z,69.09
2018-08-06T00:47:24.882Z,69.24
2018-08-06T00:49:56.561Z,69.36
2018-08-06T00:52:26.811Z,69.15
2018-08-06T00:54:57.162Z,69.28
2018-08-06T00:57:29.121Z,69.35
2018-08-06T01:00:03.496Z,69.16
2018-08-06T01:02:33.478Z,69.29
2018-08-06T01:05:05.861Z,69.35
2018-08-06T01:07:37.439Z,69.50
2018-08-06T01:10:11.352Z,70.08
2018-08-06T01:12:42.658Z,69.82
2018-08-06T01:15:17.265Z,69.72
2018-08-06T01:17:50.454Z,69.80
2018-08-06T01:20:22.837Z,69.93
2018-08-06T01:22:55.931Z,70.16
2018-08-06T01:25:27.418Z,70.17
2018-08-06T01:28:01.899Z,70.19
2018-08-06T01:30:33.580Z,70.72
2018-08-06T01:33:06.553Z,70.80
2018-08-06T01:35:39.566Z,70.64
2018-08-06T01:38:11.173Z,71.13
2018-08-06T01:40:44.341Z,71.10
2018-08-06T01:43:15.975Z,70.95
2018-08-06T01:45:46.071Z,70.98
2018-08-06T01:48:17.847Z,70.98
2018-08-06T01:50:50.734Z,70.96
2018-08-06T01:53:22.378Z,70.98
2018-08-06T01:55:54.466Z,71.07
2018-08-06T01:58:27.341Z,71.05
2018-08-06T02:01:00.255Z,71.06
2018-08-06T02:03:30.331Z,71.17
2018-08-06T02:06:02.398Z,71.24
2018-08-06T02:08:37.155Z,71.36
2018-08-06T02:11:08.614Z,71.28
2018-08-06T02:13:42.003Z,71.41
2018-08-06T02:16:13.564Z,71.69
2018-08-06T02:18:45.029Z,71.62
2018-08-06T02:21:17.993Z,71.55
2018-08-06T02:23:52.248Z,71.75
2018-08-06T02:26:25.570Z,71.95
2018-08-06T02:28:55.561Z,71.86
2018-08-06T02:31:28.089Z,72.07
2018-08-06T02:33:59.681Z,72.00
2018-08-06T02:36:31.136Z,71.99
2018-08-06T02:39:04.108Z,72.09
2018-08-06T02:41:35.916Z,72.21
2018-08-06T02:44:06.048Z,72.42
2018-08-06T02:46:38.462Z,72.59
2018-08-06T02:49:13.144Z,72.74
2018-08-06T02:51:44.609Z,72.87
2018-08-06T02:54:16.097Z,73.10
2018-08-06T02:56:48.275Z,73.22
2018-08-06T02:59:18.719Z,73.26
2018-08-06T03:01:51.635Z,73.63
2018-08-06T03:04:24.345Z,73.93
2018-08-06T03:06:55.797Z,73.98
2018-08-06T03:09:25.531Z,73.98
2018-08-06T03:11:57.017Z,73.94
2018-08-06T03:14:27.478Z,73.90
2018-08-06T03:16:58.892Z,73.99
2018-08-06T03:19:31.963Z,74.07
2018-08-06T03:22:04.979Z,74.17
2018-08-06T03:24:38.907Z,74.29
2018-08-06T03:27:10.601Z,74.74
2018-08-06T03:29:44.141Z,74.83
2018-08-06T03:32:14.183Z,75.19
2018-08-06T03:34:47.274Z,75.17
2018-08-06T03:37:17.178Z,75.14
2018-08-06T03:39:48.776Z,75.44
2018-08-06T03:42:21.846Z,75.50
2018-08-06T03:44:53.560Z,75.42
2018-08-06T03:47:23.785Z,75.43
2018-08-06T03:49:53.705Z,75.20
2018-08-06T03:52:24.098Z,75.09
2018-08-06T03:54:56.101Z,74.87
2018-08-06T03:57:28.412Z,74.94
2018-08-06T04:00:00.772Z,74.68
2018-08-06T04:02:33.730Z,74.68
2018-08-06T04:05:05.713Z,74.69
2018-08-06T04:07:39.261Z,74.61
2018-08-06T04:10:17.303Z,74.46
2018-08-06T04:12:50.573Z,74.48
2018-08-06T04:15:23.715Z,74.34
2018-08-06T04:17:56.874Z,73.66
2018-08-06T04:20:28.426Z,72.37
2018-08-06T04:23:00.174Z,71.16
2018-08-06T04:25:33.045Z,69.88
2018-08-06T04:28:05.954Z,68.15
2018-08-06T04:30:38.518Z,66.91
2018-08-06T04:33:10.424Z,65.70
2018-08-06T04:35:41.766Z,63.89
2018-08-06T04:38:13.271Z,62.10
2018-08-06T04:40:46.219Z,61.24
2018-08-06T04:43:16.290Z,59.97
2018-08-06T04:45:47.659Z,59.13
2018-08-06T04:48:20.694Z,59.03
2018-08-06T04:50:55.114Z,57.80
2018-08-06T04:53:28.060Z,57.97
2018-08-06T04:55:58.506Z,55.86
2018-08-06T04:58:31.404Z,54.27
2018-08-06T05:01:03.900Z,52.00
2018-08-06T05:03:38.212Z,50.54
2018-08-06T05:06:11.486Z,49.02
2018-08-06T05:08:43.064Z,48.55
2018-08-06T05:11:16.113Z,48.19
2018-08-06T05:13:47.887Z,46.97
2018-08-06T05:16:21.329Z,45.34
2018-08-06T05:18:52.849Z,45.51
2018-08-06T05:21:24.755Z,44.53
2018-08-06T05:24:01.629Z,44.43
2018-08-06T05:26:34.668Z,43.58
2018-08-06T05:29:04.938Z,42.59
2018-08-06T05:31:37.711Z,42.00
2018-08-06T05:34:11.388Z,41.56
2018-08-06T05:36:44.397Z,42.54
2018-08-06T05:39:15.937Z,42.96
2018-08-06T05:41:48.271Z,41.48
2018-08-06T05:44:18.459Z,41.45
2018-08-06T05:46:52.958Z,40.71
2018-08-06T05:49:24.834Z,41.04
2018-08-06T05:51:54.223Z,41.56
2018-08-06T05:54:28.601Z,39.17
2018-08-06T05:57:01.630Z,39.32
2018-08-06T05:59:34.427Z,38.58
2018-08-06T06:02:08.845Z,38.48
2018-08-06T06:04:41.684Z,39.11
2018-08-06T06:07:14.589Z,39.81
2018-08-06T06:09:47.535Z,39.10
2018-08-06T06:12:18.989Z,37.63
2018-08-06T06:14:51.915Z,37.33
2018-08-06T06:17:24.939Z,38.04
2018-08-06T06:19:56.286Z,37.51
2018-08-06T06:22:27.735Z,36.07
2018-08-06T06:25:00.670Z,36.33
2018-08-06T06:27:33.643Z,36.24
2018-08-06T06:30:05.543Z,35.96
2018-08-06T06:32:40.005Z,35.44
2018-08-06T06:35:15.131Z,35.05
2018-08-06T06:37:45.830Z,35.50
2018-08-06T06:40:16.052Z,34.74
2018-08-06T06:42:50.433Z,35.73
2018-08-06T06:45:23.262Z,35.20
2018-08-06T06:47:53.275Z,35.21
2018-08-06T06:50:24.617Z,35.30
2018-08-06T06:52:56.079Z,34.99
2018-08-06T06:55:27.498Z,34.31
2018-08-06T06:57:59.350Z,33.10
2018-08-06T07:00:29.775Z,34.27
2018-08-06T07:03:01.138Z,34.15
2018-08-06T07:05:31.735Z,34.93
2018-08-06T07:08:03.617Z,33.82
2018-08-06T07:10:34.171Z,33.20
2018-08-06T07:13:05.684Z,32.98
2018-08-06T07:15:40.279Z,32.23
2018-08-06T07:18:10.350Z,34.11
2018-08-06T07:20:43.195Z,32.60
2018-08-06T07:23:14.606Z,31.78
2018-08-06T07:25:45.945Z,32.38
2018-08-06T07:28:17.973Z,31.35
2018-08-06T07:30:47.912Z,31.23
2018-08-06T07:33:20.775Z,30.44
2018-08-06T07:35:52.332Z,31.46
2018-08-06T07:38:24.848Z,30.01
2018-08-06T07:40:54.738Z,29.06
2018-08-06T07:43:24.878Z,31.18
2018-08-06T07:45:54.780Z,29.94
2018-08-06T07:48:27.514Z,29.09
2018-08-06T07:51:00.677Z,28.86
2018-08-06T07:53:33.433Z,30.83
2018-08-06T07:56:04.814Z,28.71
2018-08-06T07:58:38.962Z,28.53
2018-08-06T08:01:13.103Z,28.80
2018-08-06T08:03:45.870Z,29.21
2018-08-06T08:06:15.799Z,29.98
2018-08-06T08:08:47.459Z,28.56
2018-08-06T08:11:18.791Z,28.33
2018-08-06T08:13:50.094Z,26.91
2018-08-06T08:16:21.925Z,27.57
2018-08-06T08:18:53.373Z,29.08
2018-08-06T08:21:26.241Z,26.55
2018-08-06T08:23:57.631Z,27.44
2018-08-06T08:26:29.128Z,27.07
2018-08-06T08:28:59.078Z,28.46
2018-08-06T08:31:28.995Z,28.04
2018-08-06T08:34:01.971Z,27.19
2018-08-06T08:36:35.046Z,26.44
2018-08-06T08:39:11.666Z,26.22
2018-08-06T08:41:43.600Z,26.39
2018-08-06T08:44:14.110Z,26.98
2018-08-06T08:46:45.951Z,26.69
2018-08-06T08:49:15.801Z,26.24
2018-08-06T08:51:48.691Z,26.78
2018-08-06T08:54:20.241Z,26.21
2018-08-06T08:56:53.004Z,29.91
2018-08-06T08:59:24.310Z,27.10
2018-08-06T09:01:57.628Z,26.37
2018-08-06T09:04:27.686Z,25.11
2018-08-06T09:06:58.087Z,24.45
2018-08-06T09:09:29.435Z,25.84
2018-08-06T09:12:01.586Z,27.78
2018-08-06T09:14:31.465Z,27.59
2018-08-06T09:17:02.832Z,25.21
2018-08-06T09:19:37.113Z,25.11
2018-08-06T09:22:07.767Z,27.16
2018-08-06T09:24:40.597Z,26.54
2018-08-06T09:27:11.935Z,26.49
2018-08-06T09:29:41.756Z,26.21
2018-08-06T09:32:11.669Z,25.72
2018-08-06T09:34:45.337Z,25.47
2018-08-06T09:37:18.555Z,25.05
2018-08-06T09:39:53.187Z,25.18
2018-08-06T09:42:23.076Z,26.44
2018-08-06T09:44:53.706Z,25.49
2018-08-06T09:47:24.290Z,25.95
2018-08-06T09:49:54.100Z,26.42
2018-08-06T09:52:27.933Z,27.21
2018-08-06T09:54:58.798Z,27.02
2018-08-06T09:57:30.191Z,26.53
2018-08-06T09:59:59.800Z,26.67
2018-08-06T10:02:31.227Z,26.05
2018-08-06T10:05:04.172Z,27.86
2018-08-06T10:07:37.676Z,26.67
2018-08-06T10:10:15.496Z,26.27
2018-08-06T10:12:47.521Z,27.76
2018-08-06T10:15:19.152Z,27.70
2018-08-06T10:17:51.523Z,28.27
2018-08-06T10:20:26.028Z,28.13
2018-08-06T10:22:58.952Z,28.59
2018-08-06T10:25:32.306Z,27.63
2018-08-06T10:28:03.689Z,27.85
2018-08-06T10:30:35.077Z,28.75
2018-08-06T10:33:06.476Z,27.20
2018-08-06T10:35:40.877Z,26.61
2018-08-06T10:38:12.401Z,27.83
2018-08-06T10:40:42.940Z,28.13
2018-08-06T10:43:14.318Z,26.03
2018-08-06T10:45:46.068Z,27.12
2018-08-06T10:48:19.040Z,28.24
2018-08-06T10:50:51.793Z,29.53
2018-08-06T10:53:24.837Z,28.72
2018-08-06T10:55:56.209Z,27.57
2018-08-06T10:58:28.047Z,28.46
2018-08-06T11:00:59.520Z,27.50
2018-08-06T11:03:32.312Z,27.32
2018-08-06T11:06:02.667Z,27.36
2018-08-06T11:08:34.608Z,26.96
2018-08-06T11:11:06.441Z,27.09
2018-08-06T11:13:35.764Z,26.38
2018-08-06T11:16:07.753Z,27.53
2018-08-06T11:18:39.615Z,28.77
2018-08-06T11:21:12.475Z,27.95
2018-08-06T11:23:42.324Z,28.54
2018-08-06T11:26:13.712Z,27.94
2018-08-06T11:28:45.025Z,27.74
2018-08-06T11:31:16.359Z,28.82
2018-08-06T11:33:47.816Z,28.64
2018-08-06T11:36:17.655Z,28.56
2018-08-06T11:38:49.482Z,28.97
2018-08-06T11:41:19.716Z,28.30
2018-08-06T11:43:51.091Z,28.20
2018-08-06T11:46:22.437Z,28.91
2018-08-06T11:48:53.862Z,28.05
2018-08-06T11:51:26.678Z,27.59
2018-08-06T11:53:58.060Z,26.82
2018-08-06T11:56:30.913Z,26.83
2018-08-06T11:59:01.874Z,27.19
2018-08-06T12:01:33.281Z,27.65
2018-08-06T12:04:04.706Z,26.88
2018-08-06T12:06:38.407Z,27.64
2018-08-06T12:09:14.524Z,28.63
2018-08-06T12:11:46.030Z,29.30
2018-08-06T12:14:18.884Z,28.52
2018-08-06T12:16:53.225Z,29.20
2018-08-06T12:19:27.777Z,29.08
2018-08-06T12:22:00.717Z,30.56
2018-08-06T12:24:35.390Z,28.61
2018-08-06T12:27:07.212Z,27.60
2018-08-06T12:29:37.061Z,27.21
2018-08-06T12:32:10.255Z,27.09
2018-08-06T12:34:41.587Z,26.66
2018-08-06T12:37:12.913Z,27.36
2018-08-06T12:39:47.215Z,28.55
2018-08-06T12:42:18.606Z,28.09
2018-08-06T12:44:51.399Z,26.74
2018-08-06T12:47:25.803Z,27.48
2018-08-06T12:49:55.712Z,27.75
2018-08-06T12:52:26.995Z,27.58
2018-08-06T12:55:00.147Z,27.40
2018-08-06T12:57:32.981Z,27.60
2018-08-06T13:00:06.187Z,27.78
2018-08-06T13:02:38.275Z,27.48
2018-08-06T13:05:11.454Z,26.99
2018-08-06T13:07:43.042Z,28.79
2018-08-06T13:10:15.599Z,27.48
2018-08-06T13:12:49.936Z,26.75
2018-08-06T13:15:20.375Z,28.37
2018-08-06T13:17:51.776Z,27.98
2018-08-06T13:20:24.799Z,27.02
2018-08-06T13:22:56.181Z,27.21
2018-08-06T13:25:27.399Z,27.47
2018-08-06T13:27:57.619Z,27.47
2018-08-06T13:30:28.981Z,28.50
2018-08-06T13:33:02.565Z,28.16
2018-08-06T13:35:33.004Z,26.76
2018-08-06T13:38:02.898Z,26.81
2018-08-06T13:40:32.731Z,28.10
2018-08-06T13:43:04.157Z,26.78
2018-08-06T13:45:37.016Z,26.86
2018-08-06T13:48:10.381Z,28.61
2018-08-06T13:50:43.255Z,27.32
2018-08-06T13:53:15.884Z,27.02
2018-08-06T13:55:50.099Z,27.18
2018-08-06T13:58:22.908Z,26.74
2018-08-06T14:00:56.359Z,26.30
2018-08-06T14:03:29.190Z,27.28
2018-08-06T14:06:00.640Z,27.28
2018-08-06T14:08:31.967Z,29.26
2018-08-06T14:11:02.427Z,27.35
2018-08-06T14:13:34.108Z,28.39
2018-08-06T14:16:05.471Z,27.37
2018-08-06T14:18:36.449Z,27.62
2018-08-06T14:21:12.072Z,28.17
2018-08-06T14:23:45.110Z,27.96
2018-08-06T14:26:16.714Z,27.59
2018-08-06T14:28:48.089Z,28.04
2018-08-06T14:31:17.898Z,28.52
2018-08-06T14:33:51.037Z,28.73
2018-08-06T14:36:25.311Z,27.15
2018-08-06T14:38:58.089Z,27.73
2018-08-06T14:41:30.888Z,28.70
2018-08-06T14:44:01.905Z,28.08
2018-08-06T14:46:31.668Z,30.21
2018-08-06T14:49:03.382Z,30.07
2018-08-06T14:51:36.288Z,30.09
2018-08-06T14:54:10.019Z,30.72
2018-08-06T14:56:43.222Z,30.10
2018-08-06T14:59:13.096Z,29.43
2018-08-06T15:01:44.507Z,31.04
2018-08-06T15:04:17.390Z,28.77
2018-08-06T15:06:47.325Z,28.16
2018-08-06T15:09:17.349Z,28.62
2018-08-06T15:11:50.156Z,29.36
2018-08-06T15:14:20.960Z,28.46
2018-08-06T15:16:56.247Z,29.28
2018-08-06T15:19:28.995Z,30.88
2018-08-06T15:22:00.398Z,29.61
2018-08-06T15:24:34.113Z,30.22
2018-08-06T15:27:05.804Z,30.05
2018-08-06T15:29:37.170Z,30.46
2018-08-06T15:32:07.125Z,31.08
2018-08-06T15:34:37.077Z,29.80
2018-08-06T15:37:11.238Z,31.66
2018-08-06T15:39:44.180Z,31.69
2018-08-06T15:42:18.454Z,32.42
2018-08-06T15:44:49.931Z,30.87
2018-08-06T15:47:22.844Z,32.00
2018-08-06T15:49:55.937Z,31.50
2018-08-06T15:52:28.846Z,32.80
2018-08-06T15:55:00.277Z,31.57
2018-08-06T15:57:33.356Z,32.42
2018-08-06T16:00:04.698Z,32.12
2018-08-06T16:02:36.655Z,32.17
2018-08-06T16:05:09.706Z,33.90
2018-08-06T16:07:42.848Z,32.42
2018-08-06T16:10:15.101Z,32.11
2018-08-06T16:12:46.541Z,32.42
2018-08-06T16:15:18.223Z,34.09
2018-08-06T16:17:50.797Z,33.09
2018-08-06T16:20:22.178Z,33.68
2018-08-06T16:22:56.444Z,33.89
2018-08-06T16:25:26.768Z,35.21
2018-08-06T16:27:56.785Z,33.59
2018-08-06T16:30:27.625Z,34.26
2018-08-06T16:33:00.524Z,34.01
2018-08-06T16:35:33.806Z,33.69
2018-08-06T16:38:05.181Z,35.13
2018-08-06T16:40:35.149Z,34.65
2018-08-06T16:43:09.588Z,33.22
2018-08-06T16:45:42.347Z,32.98
2018-08-06T16:48:14.234Z,32.38
2018-08-06T16:50:47.060Z,33.57
2018-08-06T16:53:16.998Z,32.99
2018-08-06T16:55:52.573Z,34.10
2018-08-06T16:58:22.492Z,33.03
2018-08-06T17:00:53.370Z,34.60
2018-08-06T17:03:23.803Z,34.81
2018-08-06T17:05:56.558Z,33.56
2018-08-06T17:08:26.454Z,34.40
2018-08-06T17:10:59.282Z,34.23
2018-08-06T17:13:29.240Z,34.67
2018-08-06T17:16:02.072Z,34.07
2018-08-06T17:18:33.498Z,34.81
2018-08-06T17:21:02.796Z,34.99
2018-08-06T17:23:34.216Z,36.32
2018-08-06T17:26:07.233Z,37.66
2018-08-06T17:28:38.509Z,37.50
2018-08-06T17:31:09.927Z,36.08
2018-08-06T17:33:41.455Z,36.01
2018-08-06T17:36:13.012Z,36.70
2018-08-06T17:38:44.318Z,36.63
2018-08-06T17:41:16.144Z,36.53
2018-08-06T17:43:47.966Z,35.84
2018-08-06T17:46:17.871Z,35.79
2018-08-06T17:48:49.310Z,35.58
2018-08-06T17:51:19.152Z,35.53
2018-08-06T17:53:49.136Z,35.53
2018-08-06T17:56:19.418Z,36.08
2018-08-06T17:58:50.742Z,37.31
2018-08-06T18:01:20.649Z,36.48
2018-08-06T18:03:52.206Z,36.08
2018-08-06T18:06:22.075Z,36.09
2018-08-06T18:08:55.224Z,37.13
2018-08-06T18:11:28.475Z,36.87
2018-08-06T18:13:59.936Z,38.31
2018-08-06T18:16:32.906Z,38.89
2018-08-06T18:19:05.192Z,40.03
2018-08-06T18:21:36.646Z,40.62
2018-08-06T18:24:06.788Z,40.32
2018-08-06T18:26:40.587Z,41.56
2018-08-06T18:29:10.421Z,41.40
2018-08-06T18:31:42.541Z,41.75
2018-08-06T18:34:15.427Z,42.09
2018-08-06T18:36:48.338Z,41.80
2018-08-06T18:39:20.800Z,42.07
2018-08-06T18:41:53.942Z,42.32
2018-08-06T18:44:25.289Z,42.94
2018-08-06T18:46:55.188Z,42.68
2018-08-06T18:49:28.062Z,43.26
2018-08-06T18:51:59.540Z,43.63
2018-08-06T18:54:30.862Z,43.99
2018-08-06T18:57:01.153Z,43.66
2018-08-06T18:59:34.058Z,44.00
2018-08-06T19:02:03.972Z,44.05
2018-08-06T19:04:33.915Z,44.02
2018-08-06T19:07:03.924Z,44.26
2018-08-06T19:09:38.318Z,44.35
2018-08-06T19:12:32.943Z,44.44
2018-08-06T19:15:04.321Z,45.07
2018-08-06T19:17:37.793Z,45.74
2018-08-06T19:20:10.894Z,46.06
2018-08-06T19:22:40.994Z,47.15
2018-08-06T19:25:30.033Z,46.60
2018-08-06T19:28:01.516Z,46.31
2018-08-06T19:30:52.238Z,46.27
2018-08-06T19:33:23.956Z,46.96
2018-08-06T19:35:55.924Z,47.09
2018-08-06T19:38:27.521Z,48.03
2018-08-06T19:40:59.052Z,49.18
2018-08-06T19:43:41.240Z,49.65
2018-08-06T19:46:13.440Z,49.48
2018-08-06T19:48:44.803Z,48.04
2018-08-06T19:51:17.703Z,48.23
2018-08-06T19:53:49.326Z,49.06
2018-08-06T19:56:22.524Z,48.74
2018-08-06T19:58:55.574Z,49.24
2018-08-06T20:01:25.499Z,49.64
2018-08-06T20:03:56.058Z,49.32
2018-08-06T20:06:28.275Z,49.63
2018-08-06T20:08:58.235Z,49.84
2018-08-06T20:11:31.600Z,49.23
2018-08-06T20:14:04.531Z,49.78
2018-08-06T20:16:36.030Z,49.76
2018-08-06T20:19:09.617Z,49.69
2018-08-06T20:21:41.123Z,49.75
2018-08-06T20:24:12.612Z,50.48
2018-08-06T20:26:44.371Z,50.79
2018-08-06T20:29:17.381Z,50.40
2018-08-06T20:31:49.120Z,50.12
2018-08-06T20:34:19.045Z,50.63
2018-08-06T20:36:50.629Z,51.94
2018-08-06T20:39:23.623Z,51.77
2018-08-06T20:41:55.192Z,51.65
2018-08-06T20:44:25.208Z,52.55
2018-08-06T20:46:56.752Z,52.11
2018-08-06T20:49:28.326Z,52.54
2018-08-06T20:52:00.042Z,52.98
2018-08-06T20:54:30.126Z,53.63
2018-08-06T20:57:04.524Z,53.34
2018-08-06T20:59:34.449Z,54.68
2018-08-06T21:02:04.419Z,54.73
2018-08-06T21:04:36.045Z,55.16
2018-08-06T21:07:07.662Z,54.66
2018-08-06T21:09:40.626Z,54.61
2018-08-06T21:12:13.432Z,54.60
2018-08-06T21:14:43.344Z,55.14
2018-08-06T21:17:15.294Z,55.88
2018-08-06T21:19:46.749Z,57.29
2018-08-06T21:22:17.456Z,56.94
2018-08-06T21:24:48.954Z,56.41
2018-08-06T21:27:20.621Z,56.51
2018-08-06T21:29:51.980Z,57.00
2018-08-06T21:32:24.993Z,57.50
2018-08-06T21:34:55.070Z,57.87
2018-08-06T21:37:25.088Z,57.79
2018-08-06T21:39:57.153Z,57.19
2018-08-06T21:42:29.957Z,57.47
2018-08-06T21:45:01.523Z,57.70
2018-08-06T21:47:33.800Z,58.54
2018-08-06T21:50:05.901Z,59.28
2018-08-06T21:52:38.268Z,59.61
2018-08-06T21:55:12.367Z,58.66
2018-08-06T21:57:45.326Z,58.05
2018-08-06T22:00:31.274Z,57.85
2018-08-06T22:03:04.608Z,57.71
2018-08-06T22:05:36.205Z,58.15
2018-08-06T22:08:09.233Z,58.06
2018-08-06T22:10:40.790Z,58.05
2018-08-06T22:13:13.864Z,58.26
2018-08-06T22:15:45.279Z,58.49
2018-08-06T22:18:15.056Z,58.98
2018-08-06T22:20:47.782Z,59.20
2018-08-06T22:23:17.707Z,59.68
2018-08-06T22:25:49.102Z,59.61
2018-08-06T22:28:21.936Z,59.61
2018-08-06T22:30:51.866Z,60.06
2018-08-06T22:33:23.891Z,59.87
2018-08-06T22:35:55.363Z,60.03
2018-08-06T22:38:28.266Z,60.11
2018-08-06T22:40:58.845Z,60.75
2018-08-06T22:43:31.767Z,61.72
2018-08-06T22:46:03.268Z,62.07
2018-08-06T22:48:33.418Z,61.98
2018-08-06T22:51:06.273Z,62.36
2018-08-06T22:53:36.878Z,62.54
2018-08-06T22:56:13.726Z,62.79
2018-08-06T22:58:46.984Z,62.79
2018-08-06T23:01:18.895Z,63.01
2018-08-06T23:03:50.366Z,63.45
2018-08-06T23:06:23.311Z,63.75
2018-08-06T23:08:54.973Z,63.60
2018-08-06T23:11:29.288Z,63.62
2018-08-06T23:13:59.817Z,63.65
2018-08-06T23:16:32.691Z,63.64
2018-08-06T23:19:05.575Z,63.77
2018-08-06T23:21:38.589Z,63.63
2018-08-06T23:24:11.620Z,63.86
2018-08-06T23:26:43.093Z,63.95
2018-08-06T23:29:13.068Z,63.76
2018-08-06T23:31:46.342Z,63.84
2018-08-06T23:34:20.818Z,64.55
2018-08-06T23:36:52.316Z,64.93
2018-08-06T23:39:23.827Z,65.98
2018-08-06T23:41:55.321Z,66.64
2018-08-06T23:44:26.716Z,66.64
2018-08-06T23:46:56.695Z,66.24
2018-08-06T23:49:27.135Z,66.12
2018-08-06T23:51:57.462Z,66.13
2018-08-06T23:54:30.308Z,66.63
2018-08-06T23:57:01.771Z,67.13
2018-08-06T23:59:31.675Z,67.58
